sensor_id;sensor_type;location;lat;lon;timestamp;P1;durP1;ratioP1;P2;durP2;ratioP2
23614;SDS011;11985;49.404;7.734;2022-11-20T00:01:37;16.52;;;9.30;;
23614;SDS011;11985;49.404;7.734;2022-11-20T00:06:39;25.92;;;10.65;;
23614;SDS011;11985;49.404;7.734;2022-11-20T00:11:40;24.52;;;11.93;;
23614;SDS011;11985;49.404;7.734;2022-11-20T00:16:44;23.73;;;12.02;;
23614;SDS011;11985;49.404;7.734;2022-11-20T00:21:46;23.10;;;11.95;;
23614;SDS011;11985;49.404;7.734;2022-11-20T00:26:51;32.85;;;13.48;;
23614;SDS011;11985;49.404;7.734;2022-11-20T00:31:54;33.38;;;13.93;;
23614;SDS011;11985;49.404;7.734;2022-11-20T00:36:55;29.77;;;13.98;;
23614;SDS011;11985;49.404;7.734;2022-11-20T00:41:57;28.77;;;13.60;;
23614;SDS011;11985;49.404;7.734;2022-11-20T00:47:00;30.40;;;14.02;;
23614;SDS011;11985;49.404;7.734;2022-11-20T00:52:01;33.00;;;16.00;;
23614;SDS011;11985;49.404;7.734;2022-11-20T00:57:03;29.98;;;14.07;;
23614;SDS011;11985;49.404;7.734;2022-11-20T01:02:06;30.20;;;14.65;;
23614;SDS011;11985;49.404;7.734;2022-11-20T01:07:10;27.90;;;13.30;;
23614;SDS011;11985;49.404;7.734;2022-11-20T01:12:11;26.67;;;13.90;;
23614;SDS011;11985;49.404;7.734;2022-11-20T01:17:14;26.50;;;13.32;;
23614;SDS011;11985;49.404;7.734;2022-11-20T01:22:16;22.92;;;12.38;;
23614;SDS011;11985;49.404;7.734;2022-11-20T01:27:17;24.90;;;12.57;;
23614;SDS011;11985;49.404;7.734;2022-11-20T01:32:20;27.15;;;13.30;;
23614;SDS011;11985;49.404;7.734;2022-11-20T01:37:22;24.58;;;13.35;;
23614;SDS011;11985;49.404;7.734;2022-11-20T01:42:23;28.85;;;11.85;;
23614;SDS011;11985;49.404;7.734;2022-11-20T01:47:55;21.17;;;10.77;;
23614;SDS011;11985;49.404;7.734;2022-11-20T01:52:57;20.92;;;10.40;;
23614;SDS011;11985;49.404;7.734;2022-11-20T01:58:03;17.45;;;10.30;;
23614;SDS011;11985;49.404;7.734;2022-11-20T02:03:08;23.52;;;11.48;;
23614;SDS011;11985;49.404;7.734;2022-11-20T02:08:12;18.67;;;11.18;;
23614;SDS011;11985;49.404;7.734;2022-11-20T02:13:14;21.05;;;11.40;;
23614;SDS011;11985;49.404;7.734;2022-11-20T02:18:35;21.95;;;10.73;;
23614;SDS011;11985;49.404;7.734;2022-11-20T02:23:38;18.38;;;9.50;;
23614;SDS011;11985;49.404;7.734;2022-11-20T02:28:45;27.83;;;13.77;;
23614;SDS011;11985;49.404;7.734;2022-11-20T02:33:47;22.77;;;13.20;;
23614;SDS011;11985;49.404;7.734;2022-11-20T02:38:49;25.35;;;13.93;;
23614;SDS011;11985;49.404;7.734;2022-11-20T02:43:52;23.75;;;13.07;;
23614;SDS011;11985;49.404;7.734;2022-11-20T02:48:54;27.08;;;13.95;;
23614;SDS011;11985;49.404;7.734;2022-11-20T02:53:56;25.27;;;13.68;;
23614;SDS011;11985;49.404;7.734;2022-11-20T02:58:59;25.23;;;14.15;;
23614;SDS011;11985;49.404;7.734;2022-11-20T03:04:01;24.98;;;14.27;;
23614;SDS011;11985;49.404;7.734;2022-11-20T03:09:03;26.58;;;13.20;;
23614;SDS011;11985;49.404;7.734;2022-11-20T03:14:05;27.20;;;13.77;;
23614;SDS011;11985;49.404;7.734;2022-11-20T03:19:07;25.00;;;13.55;;
23614;SDS011;11985;49.404;7.734;2022-11-20T03:24:09;27.80;;;13.60;;
23614;SDS011;11985;49.404;7.734;2022-11-20T03:29:11;21.40;;;12.82;;
23614;SDS011;11985;49.404;7.734;2022-11-20T03:34:13;29.50;;;12.77;;
23614;SDS011;11985;49.404;7.734;2022-11-20T03:39:15;22.52;;;12.63;;
23614;SDS011;11985;49.404;7.734;2022-11-20T03:44:18;25.35;;;12.18;;
23614;SDS011;11985;49.404;7.734;2022-11-20T03:49:22;23.35;;;11.85;;
23614;SDS011;11985;49.404;7.734;2022-11-20T03:54:23;22.08;;;11.20;;
23614;SDS011;11985;49.404;7.734;2022-11-20T03:59:26;18.73;;;10.60;;
23614;SDS011;11985;49.404;7.734;2022-11-20T04:04:28;21.70;;;11.15;;
23614;SDS011;11985;49.404;7.734;2022-11-20T04:09:29;24.77;;;11.27;;
23614;SDS011;11985;49.404;7.734;2022-11-20T04:14:32;20.60;;;11.40;;
23614;SDS011;11985;49.404;7.734;2022-11-20T04:19:34;19.92;;;10.55;;
23614;SDS011;11985;49.404;7.734;2022-11-20T04:24:35;17.65;;;10.55;;
23614;SDS011;11985;49.404;7.734;2022-11-20T04:29:38;17.92;;;9.75;;
23614;SDS011;11985;49.404;7.734;2022-11-20T04:34:40;17.90;;;10.05;;
23614;SDS011;11985;49.404;7.734;2022-11-20T04:39:42;18.08;;;9.02;;
23614;SDS011;11985;49.404;7.734;2022-11-20T04:44:46;16.83;;;8.30;;
23614;SDS011;11985;49.404;7.734;2022-11-20T04:49:47;12.40;;;7.60;;
23614;SDS011;11985;49.404;7.734;2022-11-20T04:54:49;10.95;;;7.65;;
23614;SDS011;11985;49.404;7.734;2022-11-20T04:59:54;13.88;;;7.65;;
23614;SDS011;11985;49.404;7.734;2022-11-20T05:04:55;14.70;;;7.18;;
23614;SDS011;11985;49.404;7.734;2022-11-20T05:09:57;17.38;;;7.40;;
23614;SDS011;11985;49.404;7.734;2022-11-20T05:15:00;14.93;;;6.32;;
23614;SDS011;11985;49.404;7.734;2022-11-20T05:20:01;12.43;;;6.03;;
23614;SDS011;11985;49.404;7.734;2022-11-20T05:25:03;9.77;;;5.85;;
23614;SDS011;11985;49.404;7.734;2022-11-20T05:30:07;10.82;;;5.38;;
23614;SDS011;11985;49.404;7.734;2022-11-20T05:35:10;10.57;;;5.88;;
23614;SDS011;11985;49.404;7.734;2022-11-20T05:40:12;8.15;;;5.30;;
23614;SDS011;11985;49.404;7.734;2022-11-20T05:45:15;8.02;;;5.13;;
23614;SDS011;11985;49.404;7.734;2022-11-20T05:50:17;8.57;;;5.22;;
23614;SDS011;11985;49.404;7.734;2022-11-20T05:55:18;7.75;;;5.13;;
23614;SDS011;11985;49.404;7.734;2022-11-20T06:00:21;8.73;;;5.22;;
23614;SDS011;11985;49.404;7.734;2022-11-20T06:05:23;9.32;;;5.00;;
23614;SDS011;11985;49.404;7.734;2022-11-20T06:10:24;7.88;;;5.63;;
23614;SDS011;11985;49.404;7.734;2022-11-20T06:15:27;7.85;;;5.55;;
23614;SDS011;11985;49.404;7.734;2022-11-20T06:20:29;9.73;;;5.32;;
23614;SDS011;11985;49.404;7.734;2022-11-20T06:25:30;8.23;;;4.45;;
23614;SDS011;11985;49.404;7.734;2022-11-20T06:30:33;7.20;;;4.28;;
23614;SDS011;11985;49.404;7.734;2022-11-20T06:35:35;6.80;;;4.53;;
23614;SDS011;11985;49.404;7.734;2022-11-20T06:40:39;6.18;;;3.38;;
23614;SDS011;11985;49.404;7.734;2022-11-20T06:45:42;6.93;;;4.20;;
23614;SDS011;11985;49.404;7.734;2022-11-20T06:50:44;10.27;;;4.28;;
23614;SDS011;11985;49.404;7.734;2022-11-20T06:55:45;6.55;;;3.92;;
23614;SDS011;11985;49.404;7.734;2022-11-20T07:00:49;7.57;;;4.53;;
23614;SDS011;11985;49.404;7.734;2022-11-20T07:05:51;8.50;;;4.45;;
23614;SDS011;11985;49.404;7.734;2022-11-20T07:10:52;7.15;;;4.90;;
23614;SDS011;11985;49.404;7.734;2022-11-20T07:16:00;7.78;;;4.72;;
23614;SDS011;11985;49.404;7.734;2022-11-20T07:21:03;7.65;;;4.97;;
23614;SDS011;11985;49.404;7.734;2022-11-20T07:26:06;9.85;;;4.85;;
23614;SDS011;11985;49.404;7.734;2022-11-20T07:31:10;6.80;;;4.70;;
23614;SDS011;11985;49.404;7.734;2022-11-20T07:36:13;9.23;;;5.13;;
23614;SDS011;11985;49.404;7.734;2022-11-20T07:41:14;8.05;;;5.60;;
23614;SDS011;11985;49.404;7.734;2022-11-20T07:46:17;11.38;;;6.63;;
23614;SDS011;11985;49.404;7.734;2022-11-20T07:51:19;12.98;;;8.10;;
23614;SDS011;11985;49.404;7.734;2022-11-20T07:56:20;13.02;;;8.80;;
23614;SDS011;11985;49.404;7.734;2022-11-20T08:01:23;13.98;;;9.07;;
23614;SDS011;11985;49.404;7.734;2022-11-20T08:06:25;13.18;;;9.52;;
23614;SDS011;11985;49.404;7.734;2022-11-20T08:11:26;14.43;;;8.90;;
23614;SDS011;11985;49.404;7.734;2022-11-20T08:16:47;15.05;;;9.95;;
23614;SDS011;11985;49.404;7.734;2022-11-20T08:21:50;16.05;;;10.48;;
23614;SDS011;11985;49.404;7.734;2022-11-20T08:26:51;12.32;;;8.95;;
23614;SDS011;11985;49.404;7.734;2022-11-20T08:31:54;16.42;;;10.48;;
23614;SDS011;11985;49.404;7.734;2022-11-20T08:36:56;14.57;;;9.60;;
23614;SDS011;11985;49.404;7.734;2022-11-20T08:41:57;12.88;;;9.25;;
23614;SDS011;11985;49.404;7.734;2022-11-20T08:47:01;19.98;;;9.82;;
23614;SDS011;11985;49.404;7.734;2022-11-20T08:52:02;13.23;;;8.90;;
23614;SDS011;11985;49.404;7.734;2022-11-20T08:57:04;13.85;;;8.85;;
23614;SDS011;11985;49.404;7.734;2022-11-20T09:02:07;12.20;;;8.90;;
23614;SDS011;11985;49.404;7.734;2022-11-20T09:07:09;11.85;;;7.93;;
23614;SDS011;11985;49.404;7.734;2022-11-20T09:12:10;12.10;;;7.88;;
23614;SDS011;11985;49.404;7.734;2022-11-20T09:17:13;20.25;;;13.07;;
23614;SDS011;11985;49.404;7.734;2022-11-20T09:22:15;17.40;;;11.07;;
23614;SDS011;11985;49.404;7.734;2022-11-20T09:27:17;9.45;;;7.40;;
23614;SDS011;11985;49.404;7.734;2022-11-20T09:32:22;11.75;;;7.30;;
23614;SDS011;11985;49.404;7.734;2022-11-20T09:37:24;14.50;;;9.00;;
23614;SDS011;11985;49.404;7.734;2022-11-20T09:42:27;15.20;;;6.82;;
23614;SDS011;11985;49.404;7.734;2022-11-20T09:47:43;9.70;;;6.78;;
23614;SDS011;11985;49.404;7.734;2022-11-20T09:52:58;8.85;;;5.43;;
23614;SDS011;11985;49.404;7.734;2022-11-20T09:58:13;9.60;;;5.35;;
23614;SDS011;11985;49.404;7.734;2022-11-20T10:03:29;10.27;;;4.50;;
23614;SDS011;11985;49.404;7.734;2022-11-20T10:08:39;5.90;;;4.18;;
23614;SDS011;11985;49.404;7.734;2022-11-20T10:13:47;9.35;;;4.68;;
23614;SDS011;11985;49.404;7.734;2022-11-20T10:19:05;8.88;;;4.78;;
23614;SDS011;11985;49.404;7.734;2022-11-20T10:24:24;9.52;;;5.28;;
23614;SDS011;11985;49.404;7.734;2022-11-20T10:29:47;9.85;;;5.00;;
23614;SDS011;11985;49.404;7.734;2022-11-20T10:35:00;11.00;;;5.82;;
23614;SDS011;11985;49.404;7.734;2022-11-20T10:40:05;10.65;;;4.97;;
23614;SDS011;11985;49.404;7.734;2022-11-20T10:45:27;15.80;;;6.00;;
23614;SDS011;11985;49.404;7.734;2022-11-20T10:50:37;7.37;;;4.90;;
23614;SDS011;11985;49.404;7.734;2022-11-20T10:55:50;6.68;;;3.63;;
23614;SDS011;11985;49.404;7.734;2022-11-20T11:01:02;7.93;;;3.63;;
23614;SDS011;11985;49.404;7.734;2022-11-20T11:06:07;11.25;;;3.85;;
23614;SDS011;11985;49.404;7.734;2022-11-20T11:11:18;9.30;;;2.63;;
23614;SDS011;11985;49.404;7.734;2022-11-20T11:16:24;9.48;;;3.55;;
23614;SDS011;11985;49.404;7.734;2022-11-20T11:21:28;6.82;;;3.05;;
23614;SDS011;11985;49.404;7.734;2022-11-20T11:26:30;14.02;;;2.97;;
23614;SDS011;11985;49.404;7.734;2022-11-20T11:31:32;6.50;;;2.78;;
23614;SDS011;11985;49.404;7.734;2022-11-20T11:36:36;12.93;;;3.40;;
23614;SDS011;11985;49.404;7.734;2022-11-20T11:41:38;8.18;;;3.17;;
23614;SDS011;11985;49.404;7.734;2022-11-20T11:46:43;10.85;;;3.53;;
23614;SDS011;11985;49.404;7.734;2022-11-20T11:51:58;9.88;;;3.97;;
23614;SDS011;11985;49.404;7.734;2022-11-20T11:57:10;6.88;;;3.47;;
23614;SDS011;11985;49.404;7.734;2022-11-20T12:02:37;8.63;;;3.45;;
23614;SDS011;11985;49.404;7.734;2022-11-20T12:07:52;7.10;;;2.90;;
23614;SDS011;11985;49.404;7.734;2022-11-20T12:12:59;10.93;;;3.65;;
23614;SDS011;11985;49.404;7.734;2022-11-20T12:18:18;7.47;;;2.97;;
23614;SDS011;11985;49.404;7.734;2022-11-20T12:23:24;8.68;;;3.30;;
23614;SDS011;11985;49.404;7.734;2022-11-20T12:28:34;8.07;;;3.30;;
23614;SDS011;11985;49.404;7.734;2022-11-20T12:33:48;4.50;;;2.20;;
23614;SDS011;11985;49.404;7.734;2022-11-20T12:39:18;6.90;;;2.78;;
23614;SDS011;11985;49.404;7.734;2022-11-20T12:44:35;9.80;;;2.40;;
23614;SDS011;11985;49.404;7.734;2022-11-20T12:50:12;11.43;;;2.85;;
23614;SDS011;11985;49.404;7.734;2022-11-20T12:55:28;5.28;;;1.60;;
23614;SDS011;11985;49.404;7.734;2022-11-20T13:00:34;4.70;;;1.55;;
23614;SDS011;11985;49.404;7.734;2022-11-20T13:05:45;6.50;;;1.80;;
23614;SDS011;11985;49.404;7.734;2022-11-20T13:10:58;3.13;;;1.50;;
23614;SDS011;11985;49.404;7.734;2022-11-20T13:16:08;2.58;;;1.30;;
23614;SDS011;11985;49.404;7.734;2022-11-20T13:21:34;5.15;;;1.40;;
23614;SDS011;11985;49.404;7.734;2022-11-20T13:26:39;3.13;;;1.33;;
23614;SDS011;11985;49.404;7.734;2022-11-20T13:31:43;7.60;;;1.73;;
23614;SDS011;11985;49.404;7.734;2022-11-20T13:36:49;4.20;;;1.50;;
23614;SDS011;11985;49.404;7.734;2022-11-20T13:41:57;4.93;;;1.30;;
23614;SDS011;11985;49.404;7.734;2022-11-20T13:47:01;10.02;;;1.75;;
23614;SDS011;11985;49.404;7.734;2022-11-20T13:52:05;3.55;;;1.45;;
23614;SDS011;11985;49.404;7.734;2022-11-20T13:57:40;2.95;;;1.15;;
23614;SDS011;11985;49.404;7.734;2022-11-20T14:02:52;3.95;;;0.90;;
23614;SDS011;11985;49.404;7.734;2022-11-20T14:08:02;4.50;;;1.58;;
23614;SDS011;11985;49.404;7.734;2022-11-20T14:13:12;3.75;;;1.42;;
23614;SDS011;11985;49.404;7.734;2022-11-20T14:18:20;6.18;;;1.23;;
23614;SDS011;11985;49.404;7.734;2022-11-20T14:23:25;5.07;;;1.00;;
23614;SDS011;11985;49.404;7.734;2022-11-20T14:28:29;7.25;;;1.23;;
23614;SDS011;11985;49.404;7.734;2022-11-20T14:33:32;7.18;;;1.23;;
23614;SDS011;11985;49.404;7.734;2022-11-20T14:38:36;5.32;;;3.00;;
23614;SDS011;11985;49.404;7.734;2022-11-20T14:43:39;6.03;;;2.20;;
23614;SDS011;11985;49.404;7.734;2022-11-20T14:48:48;3.90;;;1.73;;
23614;SDS011;11985;49.404;7.734;2022-11-20T14:58:58;13.77;;;6.28;;
23614;SDS011;11985;49.404;7.734;2022-11-20T15:04:00;9.02;;;3.63;;
23614;SDS011;11985;49.404;7.734;2022-11-20T15:09:03;7.28;;;2.72;;
23614;SDS011;11985;49.404;7.734;2022-11-20T15:14:08;10.43;;;3.05;;
23614;SDS011;11985;49.404;7.734;2022-11-20T15:19:12;6.60;;;2.55;;
23614;SDS011;11985;49.404;7.734;2022-11-20T15:24:19;5.00;;;1.92;;
23614;SDS011;11985;49.404;7.734;2022-11-20T15:29:22;2.55;;;1.10;;
23614;SDS011;11985;49.404;7.734;2022-11-20T15:34:26;4.03;;;2.10;;
23614;SDS011;11985;49.404;7.734;2022-11-20T15:39:28;6.78;;;1.48;;
23614;SDS011;11985;49.404;7.734;2022-11-20T15:44:30;9.38;;;2.25;;
23614;SDS011;11985;49.404;7.734;2022-11-20T15:49:32;9.07;;;1.70;;
23614;SDS011;11985;49.404;7.734;2022-11-20T15:54:33;7.22;;;1.50;;
23614;SDS011;11985;49.404;7.734;2022-11-20T15:59:36;9.35;;;2.10;;
23614;SDS011;11985;49.404;7.734;2022-11-20T16:04:39;3.65;;;1.67;;
23614;SDS011;11985;49.404;7.734;2022-11-20T16:09:41;14.85;;;6.18;;
23614;SDS011;11985;49.404;7.734;2022-11-20T16:14:44;5.22;;;2.35;;
23614;SDS011;11985;49.404;7.734;2022-11-20T16:20:04;7.15;;;4.15;;
23614;SDS011;11985;49.404;7.734;2022-11-20T16:25:06;5.32;;;1.80;;
23614;SDS011;11985;49.404;7.734;2022-11-20T16:30:10;4.35;;;2.20;;
23614;SDS011;11985;49.404;7.734;2022-11-20T16:35:12;4.45;;;2.10;;
23614;SDS011;11985;49.404;7.734;2022-11-20T16:40:14;8.10;;;1.65;;
23614;SDS011;11985;49.404;7.734;2022-11-20T16:45:17;7.57;;;3.63;;
23614;SDS011;11985;49.404;7.734;2022-11-20T16:50:19;8.50;;;2.10;;
23614;SDS011;11985;49.404;7.734;2022-11-20T16:55:20;9.85;;;3.85;;
23614;SDS011;11985;49.404;7.734;2022-11-20T17:00:23;10.10;;;2.03;;
23614;SDS011;11985;49.404;7.734;2022-11-20T17:05:24;6.38;;;1.80;;
23614;SDS011;11985;49.404;7.734;2022-11-20T17:10:29;6.53;;;1.63;;
23614;SDS011;11985;49.404;7.734;2022-11-20T17:15:32;6.20;;;1.80;;
23614;SDS011;11985;49.404;7.734;2022-11-20T17:20:34;4.38;;;1.85;;
23614;SDS011;11985;49.404;7.734;2022-11-20T17:25:35;4.75;;;1.88;;
23614;SDS011;11985;49.404;7.734;2022-11-20T17:30:38;9.55;;;2.47;;
23614;SDS011;11985;49.404;7.734;2022-11-20T17:35:40;7.22;;;2.20;;
23614;SDS011;11985;49.404;7.734;2022-11-20T17:40:41;4.90;;;2.08;;
23614;SDS011;11985;49.404;7.734;2022-11-20T17:45:44;11.82;;;1.98;;
23614;SDS011;11985;49.404;7.734;2022-11-20T17:50:46;4.28;;;1.80;;
23614;SDS011;11985;49.404;7.734;2022-11-20T17:55:53;5.53;;;1.70;;
23614;SDS011;11985;49.404;7.734;2022-11-20T18:01:15;6.95;;;2.30;;
23614;SDS011;11985;49.404;7.734;2022-11-20T18:06:17;6.60;;;2.83;;
23614;SDS011;11985;49.404;7.734;2022-11-20T18:11:24;3.42;;;2.63;;
23614;SDS011;11985;49.404;7.734;2022-11-20T18:16:29;3.23;;;1.70;;
23614;SDS011;11985;49.404;7.734;2022-11-20T18:21:34;4.18;;;1.73;;
23614;SDS011;11985;49.404;7.734;2022-11-20T18:26:36;3.45;;;1.58;;
23614;SDS011;11985;49.404;7.734;2022-11-20T18:31:39;4.80;;;2.42;;
23614;SDS011;11985;49.404;7.734;2022-11-20T18:36:41;3.53;;;1.20;;
23614;SDS011;11985;49.404;7.734;2022-11-20T18:41:44;7.25;;;2.30;;
23614;SDS011;11985;49.404;7.734;2022-11-20T18:47:05;1.85;;;1.30;;
23614;SDS011;11985;49.404;7.734;2022-11-20T18:52:10;2.67;;;1.10;;
23614;SDS011;11985;49.404;7.734;2022-11-20T18:57:12;4.15;;;1.52;;
23614;SDS011;11985;49.404;7.734;2022-11-20T19:02:18;4.82;;;2.15;;
23614;SDS011;11985;49.404;7.734;2022-11-20T19:07:20;2.22;;;1.30;;
23614;SDS011;11985;49.404;7.734;2022-11-20T19:12:22;3.20;;;1.85;;
23614;SDS011;11985;49.404;7.734;2022-11-20T19:17:24;2.47;;;1.50;;
23614;SDS011;11985;49.404;7.734;2022-11-20T19:22:26;2.55;;;1.73;;
23614;SDS011;11985;49.404;7.734;2022-11-20T19:27:28;2.08;;;1.25;;
23614;SDS011;11985;49.404;7.734;2022-11-20T19:32:31;2.53;;;1.45;;
23614;SDS011;11985;49.404;7.734;2022-11-20T19:37:34;4.47;;;3.30;;
23614;SDS011;11985;49.404;7.734;2022-11-20T19:42:35;1.63;;;0.80;;
23614;SDS011;11985;49.404;7.734;2022-11-20T19:47:39;4.03;;;2.00;;
23614;SDS011;11985;49.404;7.734;2022-11-20T19:52:41;2.33;;;1.85;;
23614;SDS011;11985;49.404;7.734;2022-11-20T19:57:42;2.88;;;1.70;;
23614;SDS011;11985;49.404;7.734;2022-11-20T20:02:45;1.98;;;1.60;;
23614;SDS011;11985;49.404;7.734;2022-11-20T20:07:47;3.20;;;1.67;;
23614;SDS011;11985;49.404;7.734;2022-11-20T20:12:48;4.53;;;1.80;;
23614;SDS011;11985;49.404;7.734;2022-11-20T20:17:51;3.03;;;1.90;;
23614;SDS011;11985;49.404;7.734;2022-11-20T20:22:53;5.47;;;2.42;;
23614;SDS011;11985;49.404;7.734;2022-11-20T20:27:55;7.68;;;2.55;;
23614;SDS011;11985;49.404;7.734;2022-11-20T20:32:57;5.88;;;2.53;;
23614;SDS011;11985;49.404;7.734;2022-11-20T20:37:59;4.88;;;2.55;;
23614;SDS011;11985;49.404;7.734;2022-11-20T20:43:00;4.50;;;2.17;;
23614;SDS011;11985;49.404;7.734;2022-11-20T20:48:04;6.65;;;2.58;;
23614;SDS011;11985;49.404;7.734;2022-11-20T20:53:06;8.02;;;2.53;;
23614;SDS011;11985;49.404;7.734;2022-11-20T20:58:08;5.28;;;2.30;;
23614;SDS011;11985;49.404;7.734;2022-11-20T21:03:11;8.70;;;3.08;;
23614;SDS011;11985;49.404;7.734;2022-11-20T21:08:12;8.75;;;2.67;;
23614;SDS011;11985;49.404;7.734;2022-11-20T21:13:23;5.88;;;2.40;;
23614;SDS011;11985;49.404;7.734;2022-11-20T21:18:27;11.20;;;3.03;;
23614;SDS011;11985;49.404;7.734;2022-11-20T21:23:29;6.38;;;2.60;;
23614;SDS011;11985;49.404;7.734;2022-11-20T21:28:31;9.77;;;2.83;;
23614;SDS011;11985;49.404;7.734;2022-11-20T21:33:36;11.02;;;2.72;;
23614;SDS011;11985;49.404;7.734;2022-11-20T21:38:39;8.82;;;2.20;;
23614;SDS011;11985;49.404;7.734;2022-11-20T21:43:40;7.88;;;2.50;;
23614;SDS011;11985;49.404;7.734;2022-11-20T21:48:45;9.40;;;3.00;;
23614;SDS011;11985;49.404;7.734;2022-11-20T21:53:47;12.97;;;2.60;;
23614;SDS011;11985;49.404;7.734;2022-11-20T21:58:49;13.27;;;2.95;;
23614;SDS011;11985;49.404;7.734;2022-11-20T22:03:54;9.68;;;2.72;;
23614;SDS011;11985;49.404;7.734;2022-11-20T22:08:57;11.70;;;2.83;;
23614;SDS011;11985;49.404;7.734;2022-11-20T22:13:58;14.10;;;3.33;;
23614;SDS011;11985;49.404;7.734;2022-11-20T22:19:20;11.02;;;2.35;;
23614;SDS011;11985;49.404;7.734;2022-11-20T22:24:22;20.03;;;3.17;;
23614;SDS011;11985;49.404;7.734;2022-11-20T22:29:24;13.52;;;2.85;;
23614;SDS011;11985;49.404;7.734;2022-11-20T22:34:27;12.35;;;2.72;;
23614;SDS011;11985;49.404;7.734;2022-11-20T22:39:28;9.88;;;2.38;;
23614;SDS011;11985;49.404;7.734;2022-11-20T22:44:29;10.68;;;2.63;;
23614;SDS011;11985;49.404;7.734;2022-11-20T22:49:32;7.85;;;2.33;;
23614;SDS011;11985;49.404;7.734;2022-11-20T22:54:34;10.32;;;2.22;;
23614;SDS011;11985;49.404;7.734;2022-11-20T22:59:36;12.90;;;2.60;;
23614;SDS011;11985;49.404;7.734;2022-11-20T23:04:38;12.77;;;2.35;;
23614;SDS011;11985;49.404;7.734;2022-11-20T23:09:40;9.30;;;2.15;;
23614;SDS011;11985;49.404;7.734;2022-11-20T23:14:42;7.38;;;1.98;;
23614;SDS011;11985;49.404;7.734;2022-11-20T23:19:45;9.00;;;2.63;;
23614;SDS011;11985;49.404;7.734;2022-11-20T23:24:46;15.73;;;4.75;;
23614;SDS011;11985;49.404;7.734;2022-11-20T23:29:48;16.65;;;6.03;;
23614;SDS011;11985;49.404;7.734;2022-11-20T23:34:50;19.95;;;8.32;;
23614;SDS011;11985;49.404;7.734;2022-11-20T23:39:55;6.40;;;2.20;;
23614;SDS011;11985;49.404;7.734;2022-11-20T23:44:57;7.40;;;2.30;;
23614;SDS011;11985;49.404;7.734;2022-11-20T23:50:00;17.42;;;2.92;;
23614;SDS011;11985;49.404;7.734;2022-11-20T23:55:02;19.10;;;2.90;;
